AYNZ

Details ICAO AYNZ (LAE)
Name Nadzab
Region Papua New Guinea
Timezone Pacific/Port_Moresby (UTC+10.0)
Plans Departing 11
Arriving 4
Stats Elevation 46 ft / 14 m (AMSL)
Location -6.569829° 146.726160°
Runways 1
Magnetic Variation 5.349° E
Sunrise 2017-12-16 19:55:20 UTC / 2017-12-17 05:55:20 Local
Sunset 2017-12-17 08:25:27 UTC / 2017-12-17 18:25:27 Local
Advertisement - Login to hide

Runways

ID Width Length Bearing (true) Bearing (mag) Surface Threshold Offset Overrun Length
09 98 ft / 30 m 8,002 ft / 2,439 m 95.00° 89.65° Asphalt 0 ft / 0 m 197 ft / 60 m
27 98 ft / 30 m 8,002 ft / 2,439 m 275.00° 269.65° Asphalt 0 ft / 0 m 194 ft / 59 m

Map

Weather


0- 5 10 15 20 25 30 35+ Temperature / ° C

Clouds and Precipitation
Forecast for 2017-12-17 00:00 UTC. Updated 2 hours ago

Ground ~20,000 ft ~40,000 ft Winds

METAR

AYNZ 170000Z 00000KT 9999 SCT016 SCT120 OVC280 28/25 Q1008

TAF

Not found

Frequencies

Recorded 127.70 MHz LAE AWOS
Warning: Do not use this data for real-world aviation or navigation. No guarantee of current accuracy is given.